Time;durP1;ratioP1;P1;durP2;ratioP2;P2;SDS_P1;SDS_P2;PMS_P1;PMS_P2;Temp;Humidity;BMP_temperature;BMP_pressure;BME280_temperature;BME280_humidity;BME280_pressure;Samples;Min_cycle;Max_cycle;Signal;HPM_P1;HPM_P2
2023/12/18 00:00:47;;;;;;;4.68;2.70;;;20.00;73.10;;;;;;2070078;28;20066;-51
2023/12/18 00:01:49;;;;;;;6.05;3.00;;;20.00;73.10;;;;;;2070855;28;20021;-51
2023/12/18 00:02:50;;;;;;;4.28;2.50;;;20.10;73.20;;;;;;2070628;28;20025;-50
2023/12/18 00:03:50;;;;;;;5.25;2.90;;;19.90;73.10;;;;;;2069044;28;20034;-51
2023/12/18 00:04:51;;;;;;;4.72;2.72;;;20.00;73.10;;;;;;2070788;28;20033;-50
2023/12/18 00:05:51;;;;;;;4.45;2.42;;;20.00;73.10;;;;;;2070950;28;20095;-50
2023/12/18 00:06:52;;;;;;;3.17;2.42;;;20.10;73.20;;;;;;2069551;28;20036;-50
2023/12/18 00:07:52;;;;;;;4.55;2.60;;;20.00;73.10;;;;;;2070954;28;20109;-50
2023/12/18 00:08:53;;;;;;;4.82;2.92;;;20.00;73.10;;;;;;2068753;28;20050;-50
2023/12/18 00:09:54;;;;;;;5.10;2.47;;;20.10;73.20;;;;;;2070911;28;20026;-51
2023/12/18 00:10:54;;;;;;;4.45;2.60;;;20.00;73.20;;;;;;2071121;28;20107;-50
2023/12/18 00:11:55;;;;;;;4.43;2.58;;;20.00;73.20;;;;;;2069616;28;20386;-50
2023/12/18 00:12:55;;;;;;;5.45;2.63;;;20.00;73.20;;;;;;2070506;28;20060;-50
2023/12/18 00:13:56;;;;;;;6.90;3.15;;;20.00;73.20;;;;;;2071534;28;20170;-49
2023/12/18 00:14:56;;;;;;;3.67;2.30;;;20.00;73.20;;;;;;2070644;28;20034;-50
2023/12/18 00:15:57;;;;;;;4.70;2.55;;;20.00;73.20;;;;;;2069309;28;20030;-50
2023/12/18 00:16:57;;;;;;;4.03;2.65;;;20.00;73.20;;;;;;2069776;28;20555;-50
2023/12/18 00:17:58;;;;;;;4.82;2.85;;;19.90;73.10;;;;;;2071072;28;20539;-50
2023/12/18 00:18:59;;;;;;;4.25;2.97;;;20.00;73.10;;;;;;2070820;28;20037;-51
2023/12/18 00:20:00;;;;;;;5.45;2.42;;;20.00;73.00;;;;;;2070360;28;20025;-50
2023/12/18 00:21:00;;;;;;;4.72;2.38;;;20.00;73.10;;;;;;2071698;28;20029;-49
2023/12/18 00:22:01;;;;;;;4.60;2.60;;;20.00;73.10;;;;;;2070756;28;20452;-51
2023/12/18 00:23:02;;;;;;;4.85;2.70;;;20.00;73.10;;;;;;2070361;28;20400;-49
2023/12/18 00:24:02;;;;;;;4.93;2.80;;;20.00;73.10;;;;;;2069472;28;20075;-50
2023/12/18 00:25:04;;;;;;;5.03;3.15;;;20.00;73.00;;;;;;2070278;28;20084;-51
2023/12/18 00:26:04;;;;;;;5.90;2.75;;;20.00;73.00;;;;;;2068248;28;20052;-50
2023/12/18 00:27:05;;;;;;;3.70;2.70;;;20.00;73.00;;;;;;2071324;28;20405;-52
2023/12/18 00:28:05;;;;;;;4.50;2.63;;;20.00;73.00;;;;;;2070179;28;20477;-50
2023/12/18 00:29:06;;;;;;;4.15;2.55;;;20.00;73.00;;;;;;2071264;28;20096;-50
2023/12/18 00:30:08;;;;;;;4.25;2.58;;;20.00;73.00;;;;;;2070224;28;20172;-51
2023/12/18 00:31:08;;;;;;;5.20;2.70;;;20.00;73.00;;;;;;2071414;28;20029;-50
2023/12/18 00:32:09;;;;;;;8.77;2.50;;;20.00;73.00;;;;;;2071302;28;20049;-51
2023/12/18 00:33:09;;;;;;;4.07;2.50;;;20.00;73.00;;;;;;2070477;28;20109;-51
2023/12/18 00:34:10;;;;;;;6.20;3.28;;;20.00;73.00;;;;;;2070517;28;20030;-50
2023/12/18 00:35:10;;;;;;;5.00;2.50;;;20.00;73.00;;;;;;2071545;28;20038;-50
2023/12/18 00:36:11;;;;;;;4.10;2.38;;;20.00;72.90;;;;;;2070759;28;20336;-49
2023/12/18 00:37:12;;;;;;;4.38;2.63;;;20.00;73.00;;;;;;2070919;28;20029;-50
2023/12/18 00:38:12;;;;;;;4.22;2.70;;;20.00;72.90;;;;;;2071171;28;20022;-50
2023/12/18 00:39:15;;;;;;;3.03;2.33;;;20.00;73.00;;;;;;2071024;28;20102;-50
2023/12/18 00:40:16;;;;;;;4.43;2.90;;;20.00;73.00;;;;;;2071197;28;20112;-50
2023/12/18 00:41:18;;;;;;;4.82;2.42;;;20.00;73.00;;;;;;2071253;28;20035;-50
2023/12/18 00:42:19;;;;;;;4.18;2.72;;;20.00;73.00;;;;;;2070742;28;20109;-52
2023/12/18 00:43:19;;;;;;;5.13;2.88;;;19.90;72.90;;;;;;2071790;28;20030;-50
2023/12/18 00:44:20;;;;;;;4.55;2.53;;;20.00;72.90;;;;;;2070951;28;20095;-50
2023/12/18 00:45:21;;;;;;;7.97;3.10;;;19.90;72.90;;;;;;2071210;28;20018;-50
2023/12/18 00:46:21;;;;;;;3.95;2.63;;;20.00;72.90;;;;;;2071039;28;20489;-50
2023/12/18 00:47:22;;;;;;;5.43;2.55;;;19.90;72.80;;;;;;2071010;28;20014;-51
2023/12/18 00:48:22;;;;;;;4.28;2.40;;;20.00;72.90;;;;;;2071237;28;20006;-50
2023/12/18 00:49:23;;;;;;;4.70;2.70;;;20.00;72.90;;;;;;2072051;28;20062;-51
2023/12/18 00:50:23;;;;;;;5.20;2.80;;;20.00;73.00;;;;;;2071084;28;20097;-49
2023/12/18 00:51:24;;;;;;;4.18;2.50;;;20.00;72.90;;;;;;2071632;28;20061;-51
2023/12/18 00:52:24;;;;;;;7.10;2.60;;;20.00;72.90;;;;;;2070788;28;20684;-50
2023/12/18 00:53:25;;;;;;;4.90;2.55;;;19.90;72.90;;;;;;2065510;28;20492;-53
2023/12/18 00:54:25;;;;;;;4.78;2.75;;;19.90;72.90;;;;;;2071053;28;20482;-50
2023/12/18 00:55:26;;;;;;;5.32;2.67;;;20.00;73.00;;;;;;2071301;28;20052;-50
2023/12/18 00:56:26;;;;;;;4.47;2.45;;;20.00;73.00;;;;;;2071034;28;20026;-52
2023/12/18 00:57:27;;;;;;;4.70;2.75;;;19.90;72.90;;;;;;2071538;28;20084;-50
2023/12/18 00:58:27;;;;;;;5.60;2.20;;;20.00;72.90;;;;;;2070670;28;20018;-50
2023/12/18 00:59:28;;;;;;;5.45;2.92;;;19.90;72.90;;;;;;2071277;28;20022;-50
2023/12/18 01:00:28;;;;;;;4.95;2.88;;;19.90;72.90;;;;;;2071221;28;20030;-50
2023/12/18 01:01:29;;;;;;;5.28;2.60;;;20.00;72.80;;;;;;2067005;28;20053;-50
2023/12/18 01:02:30;;;;;;;3.30;2.30;;;19.90;72.70;;;;;;2071331;28;20101;-50
2023/12/18 01:03:30;;;;;;;3.97;2.50;;;19.90;72.80;;;;;;2069354;28;20484;-50
2023/12/18 01:04:31;;;;;;;4.63;2.60;;;19.90;72.80;;;;;;2071707;28;20038;-50
2023/12/18 01:05:32;;;;;;;5.40;2.70;;;19.90;72.70;;;;;;2071182;28;20029;-50
2023/12/18 01:06:32;;;;;;;4.80;2.25;;;19.90;72.70;;;;;;2071356;28;20033;-50
2023/12/18 01:07:33;;;;;;;5.10;2.60;;;20.00;72.80;;;;;;2071349;28;20060;-50
2023/12/18 01:08:34;;;;;;;4.47;2.55;;;19.90;72.80;;;;;;2071183;28;20053;-50
2023/12/18 01:09:34;;;;;;;5.03;2.30;;;19.90;72.70;;;;;;2071018;28;20369;-50
2023/12/18 01:10:35;;;;;;;6.32;2.75;;;19.90;72.80;;;;;;2072071;28;20529;-51
2023/12/18 01:11:36;;;;;;;5.20;2.78;;;19.90;72.70;;;;;;2070644;28;20543;-50
2023/12/18 01:12:36;;;;;;;3.78;2.45;;;19.90;72.70;;;;;;2071061;28;20294;-51
2023/12/18 01:13:37;;;;;;;4.05;2.47;;;19.90;72.80;;;;;;2071573;28;20014;-50
2023/12/18 01:14:37;;;;;;;4.15;2.40;;;20.00;72.80;;;;;;2070907;28;20033;-51
2023/12/18 01:15:38;;;;;;;4.60;2.97;;;19.90;72.80;;;;;;2071483;28;20042;-49
2023/12/18 01:16:38;;;;;;;6.78;3.17;;;19.90;72.70;;;;;;2071391;28;20428;-49
2023/12/18 01:17:39;;;;;;;3.20;2.38;;;19.90;72.70;;;;;;2070938;28;20497;-50
2023/12/18 01:18:39;;;;;;;3.95;2.58;;;19.90;72.70;;;;;;2071794;28;20496;-51
2023/12/18 01:19:40;;;;;;;4.78;2.50;;;19.90;72.80;;;;;;2070598;28;20022;-50
2023/12/18 01:20:40;;;;;;;3.65;2.58;;;19.90;72.70;;;;;;2070506;28;20021;-50
2023/12/18 01:21:41;;;;;;;7.43;3.10;;;19.90;72.70;;;;;;2067686;28;20030;-50
2023/12/18 01:22:41;;;;;;;4.38;2.85;;;20.00;72.80;;;;;;2070955;28;20105;-50
2023/12/18 01:23:42;;;;;;;4.75;2.70;;;19.80;72.60;;;;;;2067615;28;20393;-50
2023/12/18 01:24:43;;;;;;;4.57;2.70;;;19.90;72.70;;;;;;2070340;28;20389;-51
2023/12/18 01:25:43;;;;;;;4.75;2.75;;;19.90;72.60;;;;;;2069027;28;20022;-51
2023/12/18 01:26:44;;;;;;;5.50;2.42;;;20.00;72.70;;;;;;2066688;28;20129;-50
2023/12/18 01:27:44;;;;;;;3.97;2.47;;;19.90;72.70;;;;;;2065551;28;20018;-50
2023/12/18 01:28:45;;;;;;;3.92;2.85;;;19.90;72.70;;;;;;2065950;28;20113;-51
2023/12/18 01:29:45;;;;;;;5.72;2.58;;;19.90;72.70;;;;;;2065915;28;20365;-50
2023/12/18 01:30:46;;;;;;;5.10;2.60;;;19.90;72.70;;;;;;2066472;28;20037;-50
2023/12/18 01:31:47;;;;;;;4.35;2.70;;;19.90;72.70;;;;;;2068498;28;20019;-51
2023/12/18 01:32:47;;;;;;;4.50;2.90;;;19.80;72.60;;;;;;2067968;28;20101;-50
2023/12/18 01:33:48;;;;;;;5.82;2.50;;;19.90;72.70;;;;;;2068781;28;20027;-51
2023/12/18 01:34:49;;;;;;;4.32;2.38;;;19.90;72.60;;;;;;2069395;28;20068;-51
2023/12/18 01:35:49;;;;;;;5.13;3.10;;;19.80;72.60;;;;;;2068303;28;20497;-50
2023/12/18 01:36:50;;;;;;;5.05;2.40;;;19.80;72.60;;;;;;2066040;28;20109;-50
2023/12/18 01:37:50;;;;;;;6.35;2.63;;;19.90;72.60;;;;;;2065926;28;20386;-51
2023/12/18 01:38:51;;;;;;;4.80;2.78;;;19.90;72.60;;;;;;2066226;28;20022;-50
2023/12/18 01:39:52;;;;;;;5.75;2.42;;;19.80;72.60;;;;;;2066414;28;20098;-50
2023/12/18 01:40:52;;;;;;;4.07;2.17;;;19.80;72.60;;;;;;2068943;28;20026;-49
2023/12/18 01:41:53;;;;;;;6.32;2.70;;;19.90;72.70;;;;;;2067871;28;20027;-51
2023/12/18 01:42:53;;;;;;;4.15;2.30;;;19.80;72.60;;;;;;2069381;28;20022;-51
2023/12/18 01:43:54;;;;;;;4.00;2.33;;;19.80;72.60;;;;;;2070423;28;20022;-50
2023/12/18 01:44:54;;;;;;;5.57;2.70;;;20.00;72.70;;;;;;2067533;28;20026;-50
2023/12/18 01:45:59;;;;;;;4.00;2.70;;;19.80;72.60;;;;;;2069053;28;20480;-50
2023/12/18 01:47:00;;;;;;;6.18;2.90;;;19.90;72.60;;;;;;2067650;28;20397;-50
2023/12/18 01:48:00;;;;;;;5.30;2.60;;;19.80;72.60;;;;;;2067096;28;20034;-50
2023/12/18 01:49:01;;;;;;;6.18;2.65;;;19.80;72.60;;;;;;2065551;28;20026;-50
2023/12/18 01:50:03;;;;;;;4.88;2.50;;;19.80;72.60;;;;;;2066623;28;20021;-52
2023/12/18 01:51:04;;;;;;;4.55;2.90;;;19.80;72.60;;;;;;2069088;28;20259;-50
2023/12/18 01:52:05;;;;;;;3.92;2.55;;;19.80;72.50;;;;;;2066195;28;20014;-50
2023/12/18 01:53:06;;;;;;;5.72;3.28;;;19.80;72.60;;;;;;2065596;28;20076;-51
2023/12/18 01:54:07;;;;;;;4.57;2.88;;;19.80;72.50;;;;;;2070682;28;20022;-50
2023/12/18 01:55:08;;;;;;;6.03;2.92;;;19.80;72.50;;;;;;2070438;28;20508;-51
2023/12/18 01:56:12;;;;;;;4.47;2.45;;;19.80;72.50;;;;;;2070679;28;20304;-50
2023/12/18 01:57:15;;;;;;;4.22;2.50;;;19.80;72.50;;;;;;2065434;28;20481;-49
2023/12/18 01:58:16;;;;;;;4.10;2.30;;;19.80;72.50;;;;;;2068280;28;20056;-50
2023/12/18 01:59:18;;;;;;;4.07;2.72;;;19.80;72.50;;;;;;2070279;28;20018;-51
2023/12/18 02:00:18;;;;;;;4.32;2.30;;;19.80;72.50;;;;;;2070653;28;20109;-49
2023/12/18 02:01:19;;;;;;;4.63;2.67;;;19.80;72.70;;;;;;2066154;28;20552;-50
2023/12/18 02:02:20;;;;;;;4.95;2.50;;;19.70;72.50;;;;;;2067260;28;20093;-51
2023/12/18 02:03:22;;;;;;;4.32;2.47;;;19.80;72.50;;;;;;2065392;28;20597;-50
2023/12/18 02:04:22;;;;;;;5.47;2.63;;;19.80;72.60;;;;;;2070904;28;20097;-50
2023/12/18 02:05:23;;;;;;;5.03;2.63;;;19.80;72.60;;;;;;2065173;28;20335;-50
2023/12/18 02:06:24;;;;;;;4.72;2.40;;;19.80;72.60;;;;;;2066192;28;20491;-50
2023/12/18 02:07:26;;;;;;;4.45;2.40;;;19.80;72.60;;;;;;2068841;28;20014;-52
2023/12/18 02:08:27;;;;;;;5.38;2.75;;;19.80;72.60;;;;;;2065759;28;20015;-50
2023/12/18 02:09:29;;;;;;;5.07;2.60;;;19.80;72.60;;;;;;2067509;28;20053;-50
2023/12/18 02:10:31;;;;;;;4.63;2.55;;;19.80;72.60;;;;;;2065818;28;20072;-51
2023/12/18 02:11:32;;;;;;;5.15;2.65;;;19.80;72.60;;;;;;2065962;28;20111;-49
2023/12/18 02:12:33;;;;;;;4.95;2.47;;;19.80;72.60;;;;;;2066432;28;20045;-50
2023/12/18 02:13:33;;;;;;;5.30;2.95;;;19.80;72.50;;;;;;2066243;28;20469;-50
2023/12/18 02:14:34;;;;;;;4.28;2.67;;;19.80;72.60;;;;;;2069413;28;20041;-53
2023/12/18 02:15:35;;;;;;;3.65;2.47;;;19.80;72.50;;;;;;2065879;28;20464;-50
2023/12/18 02:16:35;;;;;;;4.35;2.50;;;19.80;72.50;;;;;;2066664;28;20026;-49
2023/12/18 02:17:36;;;;;;;4.75;3.00;;;19.80;72.50;;;;;;2067765;28;20014;-50
2023/12/18 02:18:47;;;;;;;5.13;2.88;;;19.80;72.50;;;;;;2065849;28;20053;-49
2023/12/18 02:19:47;;;;;;;4.05;2.80;;;19.70;72.40;;;;;;2067672;28;20040;-50
2023/12/18 02:20:48;;;;;;;5.47;2.58;;;19.80;72.50;;;;;;2068402;28;20022;-50
2023/12/18 02:21:49;;;;;;;5.50;3.30;;;19.70;72.40;;;;;;2068148;28;20478;-50
2023/12/18 02:22:49;;;;;;;3.63;2.70;;;19.70;72.40;;;;;;2068394;28;20109;-50
2023/12/18 02:23:50;;;;;;;5.50;2.67;;;19.70;72.40;;;;;;2066310;28;20101;-50
2023/12/18 02:24:51;;;;;;;3.13;2.45;;;19.80;72.50;;;;;;2064519;28;20050;-50
2023/12/18 02:25:51;;;;;;;4.03;2.33;;;19.80;72.50;;;;;;2067943;28;20030;-50
2023/12/18 02:26:53;;;;;;;5.10;2.60;;;19.70;72.40;;;;;;2067444;28;20073;-50
2023/12/18 02:27:54;;;;;;;3.28;2.30;;;19.80;72.50;;;;;;2065578;28;20022;-50
2023/12/18 02:28:54;;;;;;;3.33;2.38;;;19.70;72.50;;;;;;2066228;28;20053;-49
2023/12/18 02:29:55;;;;;;;5.88;3.15;;;19.70;72.40;;;;;;2069011;28;20101;-49
2023/12/18 02:30:55;;;;;;;5.15;2.65;;;19.70;72.40;;;;;;2068622;28;20041;-49
2023/12/18 02:31:57;;;;;;;4.35;2.80;;;19.70;72.30;;;;;;2071527;28;20018;-50
2023/12/18 02:32:58;;;;;;;4.88;2.70;;;19.70;72.40;;;;;;2066543;28;20547;-50
2023/12/18 02:33:58;;;;;;;3.97;2.75;;;19.70;72.30;;;;;;2066028;28;20022;-50
2023/12/18 02:34:59;;;;;;;3.83;2.25;;;19.70;72.30;;;;;;2067539;28;20098;-50
2023/12/18 02:36:01;;;;;;;5.50;2.95;;;19.70;72.40;;;;;;2066288;28;20382;-50
2023/12/18 02:37:02;;;;;;;4.47;2.65;;;19.70;72.40;;;;;;2065934;28;20019;-53
2023/12/18 02:38:03;;;;;;;4.47;2.80;;;19.70;72.40;;;;;;2064344;28;20465;-52
2023/12/18 02:39:03;;;;;;;4.07;2.50;;;19.70;72.40;;;;;;2066586;28;20026;-49
2023/12/18 02:40:04;;;;;;;6.78;2.88;;;19.70;72.40;;;;;;2066700;28;20423;-50
2023/12/18 02:41:05;;;;;;;4.07;2.47;;;19.70;72.30;;;;;;2065456;28;20374;-50
2023/12/18 02:42:05;;;;;;;5.72;3.00;;;19.70;72.40;;;;;;2066512;28;20022;-50
2023/12/18 02:43:07;;;;;;;4.60;2.50;;;19.70;72.30;;;;;;2065443;28;20018;-50
2023/12/18 02:44:07;;;;;;;3.25;2.08;;;19.70;72.30;;;;;;2067834;28;20030;-52
2023/12/18 02:45:08;;;;;;;4.30;2.75;;;19.70;72.30;;;;;;2068974;28;20021;-50
2023/12/18 02:46:09;;;;;;;4.82;2.90;;;19.70;72.40;;;;;;2070467;28;20391;-50
2023/12/18 02:47:09;;;;;;;3.78;2.30;;;19.70;72.40;;;;;;2070642;28;20010;-50
2023/12/18 02:48:10;;;;;;;3.25;2.45;;;19.70;72.30;;;;;;2067767;28;20509;-50
2023/12/18 02:49:10;;;;;;;3.58;2.30;;;19.70;72.30;;;;;;2066128;28;20130;-51
2023/12/18 02:50:11;;;;;;;3.97;2.55;;;19.70;72.30;;;;;;2066046;28;20544;-52
2023/12/18 02:51:12;;;;;;;3.40;2.45;;;19.70;72.30;;;;;;2065784;28;20033;-51
2023/12/18 02:52:12;;;;;;;3.75;2.63;;;19.70;72.30;;;;;;2070673;28;20025;-50
2023/12/18 02:53:14;;;;;;;5.93;2.85;;;19.70;72.30;;;;;;2066900;28;20500;-52
2023/12/18 02:54:15;;;;;;;3.90;2.58;;;19.70;72.30;;;;;;2065386;28;20033;-50
2023/12/18 02:55:16;;;;;;;6.72;2.70;;;19.70;72.30;;;;;;2069757;28;20033;-50
2023/12/18 02:56:16;;;;;;;3.35;2.28;;;19.70;72.30;;;;;;2069039;28;20385;-50
2023/12/18 02:57:17;;;;;;;2.58;2.33;;;19.70;72.30;;;;;;2065746;28;20034;-49
2023/12/18 02:58:20;;;;;;;3.45;2.40;;;19.60;72.20;;;;;;2066000;28;20072;-49
2023/12/18 02:59:21;;;;;;;5.03;2.97;;;19.70;72.20;;;;;;2067187;28;20494;-50
2023/12/18 03:00:21;;;;;;;4.22;2.70;;;19.70;72.20;;;;;;2066545;28;20022;-51
2023/12/18 03:01:22;;;;;;;3.40;2.00;;;19.70;72.20;;;;;;2069552;28;20029;-50
2023/12/18 03:02:22;;;;;;;4.45;2.85;;;19.70;72.30;;;;;;2065877;28;20035;-51
2023/12/18 03:03:23;;;;;;;4.47;2.90;;;19.70;72.30;;;;;;2065571;28;20030;-50
2023/12/18 03:04:23;;;;;;;4.65;2.63;;;19.60;72.20;;;;;;2066483;28;20049;-50
2023/12/18 03:05:24;;;;;;;3.78;2.25;;;19.60;72.20;;;;;;2070548;28;20030;-49
2023/12/18 03:06:25;;;;;;;3.15;2.55;;;19.70;72.20;;;;;;2065658;28;20046;-50
2023/12/18 03:07:25;;;;;;;5.93;2.80;;;19.60;72.20;;;;;;2070025;28;20022;-52
2023/12/18 03:08:26;;;;;;;5.15;2.60;;;19.70;72.30;;;;;;2066122;28;20302;-52
2023/12/18 03:09:26;;;;;;;4.93;2.58;;;19.60;72.20;;;;;;2066642;28;20469;-51
2023/12/18 03:10:27;;;;;;;4.22;2.40;;;19.60;72.20;;;;;;2066782;28;20152;-51
2023/12/18 03:11:27;;;;;;;4.25;2.70;;;19.70;72.30;;;;;;2071046;28;20109;-50
2023/12/18 03:12:28;;;;;;;4.28;2.40;;;19.70;72.30;;;;;;2066034;28;20125;-50
2023/12/18 03:13:28;;;;;;;4.32;2.67;;;19.60;72.30;;;;;;2071082;28;20026;-49
2023/12/18 03:14:29;;;;;;;5.32;2.80;;;19.60;72.20;;;;;;2066042;28;20244;-50
2023/12/18 03:15:30;;;;;;;3.97;2.28;;;19.60;72.20;;;;;;2065688;28;20022;-49
2023/12/18 03:16:30;;;;;;;4.72;2.67;;;19.60;72.20;;;;;;2066742;28;20022;-50
2023/12/18 03:17:31;;;;;;;6.82;2.60;;;19.60;72.20;;;;;;2066073;28;20022;-50
2023/12/18 03:18:31;;;;;;;4.95;2.65;;;19.60;72.20;;;;;;2068845;28;20025;-50
2023/12/18 03:19:32;;;;;;;4.35;2.63;;;19.60;72.30;;;;;;2070629;28;20060;-50
2023/12/18 03:20:32;;;;;;;5.00;3.13;;;19.60;72.30;;;;;;2070558;28;20369;-50
2023/12/18 03:21:33;;;;;;;3.45;2.35;;;19.60;72.30;;;;;;2070528;28;20018;-49
2023/12/18 03:22:33;;;;;;;4.03;2.28;;;19.60;72.30;;;;;;2070225;28;20084;-50
2023/12/18 03:23:34;;;;;;;8.13;3.00;;;19.60;72.20;;;;;;2066493;28;20030;-49
2023/12/18 03:24:34;;;;;;;5.22;3.10;;;19.60;72.20;;;;;;2065174;28;20037;-51
2023/12/18 03:25:35;;;;;;;5.32;2.67;;;19.60;72.20;;;;;;2066903;28;20030;-50
2023/12/18 03:26:35;;;;;;;4.35;2.60;;;19.60;72.10;;;;;;2069340;28;20359;-50
2023/12/18 03:27:36;;;;;;;4.60;1.83;;;19.60;72.10;;;;;;2065599;28;20084;-50
2023/12/18 03:28:36;;;;;;;5.85;2.97;;;19.60;72.20;;;;;;2066249;28;20106;-50
2023/12/18 03:29:37;;;;;;;3.85;2.70;;;19.60;72.20;;;;;;2066955;28;20018;-51
2023/12/18 03:30:38;;;;;;;4.18;2.40;;;19.60;72.20;;;;;;2065839;28;20328;-50
2023/12/18 03:31:38;;;;;;;4.78;2.45;;;19.60;72.20;;;;;;2066925;28;20026;-50
2023/12/18 03:32:39;;;;;;;4.63;3.03;;;19.60;72.20;;;;;;2065801;28;20050;-50
2023/12/18 03:33:40;;;;;;;3.95;2.28;;;19.60;72.10;;;;;;2070603;28;20018;-49
2023/12/18 03:34:40;;;;;;;5.85;3.15;;;19.60;72.10;;;;;;2069033;28;20025;-50
2023/12/18 03:35:41;;;;;;;6.57;2.70;;;19.60;72.10;;;;;;2069507;28;20050;-50
2023/12/18 03:36:42;;;;;;;4.85;2.28;;;19.60;72.10;;;;;;2066852;28;20014;-50
2023/12/18 03:37:42;;;;;;;5.13;3.17;;;19.60;72.10;;;;;;2066842;28;20080;-51
2023/12/18 03:38:43;;;;;;;7.28;2.83;;;19.70;72.20;;;;;;2066566;28;20491;-51
2023/12/18 03:39:43;;;;;;;4.07;2.83;;;19.60;72.70;;;;;;2066752;28;20420;-50
2023/12/18 03:40:44;;;;;;;3.88;2.22;;;19.70;72.20;;;;;;2066049;28;20022;-50
2023/12/18 03:41:44;;;;;;;3.72;2.30;;;19.60;72.10;;;;;;2066461;28;20030;-49
2023/12/18 03:42:45;;;;;;;6.25;2.67;;;19.60;72.10;;;;;;2067606;28;20065;-49
2023/12/18 03:43:46;;;;;;;3.13;2.50;;;19.70;72.10;;;;;;2069264;28;20061;-51
2023/12/18 03:44:46;;;;;;;4.35;2.38;;;19.60;72.10;;;;;;2067988;28;20087;-50
2023/12/18 03:45:47;;;;;;;4.47;2.75;;;19.60;72.10;;;;;;2069098;28;20467;-51
2023/12/18 03:46:48;;;;;;;3.75;2.30;;;19.60;72.20;;;;;;2069762;28;20022;-51
2023/12/18 03:47:48;;;;;;;3.63;2.25;;;19.60;72.20;;;;;;2069244;28;20045;-50
2023/12/18 03:48:49;;;;;;;4.43;2.38;;;19.60;72.20;;;;;;2066888;28;20121;-50
2023/12/18 03:49:50;;;;;;;3.65;2.38;;;19.60;72.20;;;;;;2066637;28;20053;-50
2023/12/18 03:50:50;;;;;;;5.45;2.95;;;19.60;72.20;;;;;;2068243;28;20028;-50
2023/12/18 03:51:52;;;;;;;3.75;2.40;;;19.60;72.20;;;;;;2068088;28;20018;-50
2023/12/18 03:52:53;;;;;;;3.20;2.13;;;19.60;72.10;;;;;;2068433;28;20029;-50
2023/12/18 03:53:53;;;;;;;5.03;2.58;;;19.50;72.10;;;;;;2068068;28;20018;-50
2023/12/18 03:54:54;;;;;;;4.32;2.40;;;19.60;72.10;;;;;;2069154;28;20108;-50
2023/12/18 03:55:54;;;;;;;4.22;2.40;;;19.60;72.10;;;;;;2067722;28;20040;-51
2023/12/18 03:56:55;;;;;;;5.50;2.28;;;19.60;72.00;;;;;;2068315;28;20146;-50
2023/12/18 03:57:56;;;;;;;4.50;2.63;;;19.60;72.10;;;;;;2068414;28;20049;-50
2023/12/18 03:58:56;;;;;;;4.05;2.80;;;19.60;72.70;;;;;;2065797;28;20296;-50
2023/12/18 03:59:57;;;;;;;4.22;2.50;;;19.60;72.10;;;;;;2067586;28;20037;-50
2023/12/18 04:00:58;;;;;;;3.63;2.25;;;19.60;72.10;;;;;;2066807;28;20030;-49
2023/12/18 04:01:59;;;;;;;4.28;2.78;;;19.60;72.10;;;;;;2066368;28;20022;-51
2023/12/18 04:02:59;;;;;;;6.60;2.97;;;19.60;72.10;;;;;;2066267;28;20034;-49
2023/12/18 04:04:00;;;;;;;4.18;2.78;;;19.60;72.10;;;;;;2066588;28;20105;-50
2023/12/18 04:05:00;;;;;;;3.55;2.20;;;19.50;72.00;;;;;;2069260;28;20577;-50
2023/12/18 04:06:01;;;;;;;3.95;2.28;;;19.60;72.10;;;;;;2068634;28;20037;-50
2023/12/18 04:07:02;;;;;;;4.22;2.70;;;19.60;72.10;;;;;;2068352;28;20545;-51
2023/12/18 04:08:03;;;;;;;3.53;2.25;;;19.60;72.10;;;;;;2068709;28;20031;-50
2023/12/18 04:09:03;;;;;;;3.97;2.20;;;19.50;72.00;;;;;;2069377;28;20049;-49
2023/12/18 04:10:04;;;;;;;4.72;2.60;;;19.50;72.10;;;;;;2068159;28;20021;-50
2023/12/18 04:11:13;;;;;;;4.22;2.53;;;19.50;72.10;;;;;;2068098;28;20525;-50
2023/12/18 04:12:14;;;;;;;4.32;2.50;;;19.50;72.60;;;;;;2071772;28;20014;-50
2023/12/18 04:13:15;;;;;;;4.28;2.50;;;19.60;72.10;;;;;;2069729;28;20036;-51
2023/12/18 04:14:15;;;;;;;4.05;2.22;;;19.50;72.10;;;;;;2068417;28;20034;-50
2023/12/18 04:15:16;;;;;;;7.57;2.80;;;19.50;72.10;;;;;;2067911;28;20025;-50
2023/12/18 04:16:16;;;;;;;4.18;2.25;;;19.60;72.20;;;;;;2071375;28;20092;-50
2023/12/18 04:17:17;;;;;;;4.30;2.30;;;19.50;72.10;;;;;;2071615;28;20029;-49
2023/12/18 04:18:18;;;;;;;4.35;2.47;;;19.50;72.10;;;;;;2067570;28;20034;-51
2023/12/18 04:19:19;;;;;;;3.33;2.53;;;19.50;72.10;;;;;;2068526;28;20026;-50
2023/12/18 04:20:19;;;;;;;4.53;2.20;;;19.60;72.10;;;;;;2068786;28;20077;-50
2023/12/18 04:21:20;;;;;;;5.30;2.60;;;19.50;72.00;;;;;;2069977;28;20041;-49
2023/12/18 04:22:20;;;;;;;3.83;2.55;;;19.50;72.00;;;;;;2072167;28;20037;-50
2023/12/18 04:23:21;;;;;;;4.63;2.60;;;19.40;72.00;;;;;;2068000;28;20376;-51
2023/12/18 04:24:21;;;;;;;2.97;2.10;;;19.60;72.10;;;;;;2068628;28;20102;-50
2023/12/18 04:25:22;;;;;;;6.40;3.03;;;19.50;72.10;;;;;;2068220;28;20014;-49
2023/12/18 04:26:23;;;;;;;5.55;2.85;;;19.60;72.10;;;;;;2067486;28;20082;-50
2023/12/18 04:27:23;;;;;;;3.72;2.20;;;19.50;72.00;;;;;;2067864;28;20387;-49
2023/12/18 04:28:24;;;;;;;4.55;2.30;;;19.50;72.00;;;;;;2069302;28;20470;-51
2023/12/18 04:29:25;;;;;;;4.13;2.60;;;19.50;72.00;;;;;;2069917;28;20014;-50
2023/12/18 04:30:25;;;;;;;3.90;2.10;;;19.60;72.10;;;;;;2068790;28;20026;-53
2023/12/18 04:31:26;;;;;;;5.93;2.53;;;19.60;72.00;;;;;;2068352;28;20081;-49
2023/12/18 04:32:26;;;;;;;4.95;2.78;;;19.50;72.00;;;;;;2068780;28;20061;-49
2023/12/18 04:33:27;;;;;;;4.13;2.50;;;19.50;71.90;;;;;;2068771;28;20021;-51
2023/12/18 04:34:27;;;;;;;5.32;2.50;;;19.50;71.90;;;;;;2072056;28;20353;-50
2023/12/18 04:35:28;;;;;;;3.60;2.08;;;19.50;71.90;;;;;;2068291;28;20037;-51
2023/12/18 04:36:29;;;;;;;5.10;2.65;;;19.60;72.00;;;;;;2068880;28;20503;-49
2023/12/18 04:37:29;;;;;;;4.45;2.45;;;19.50;71.90;;;;;;2070443;28;20040;-51
2023/12/18 04:38:30;;;;;;;4.68;2.35;;;19.50;71.90;;;;;;2068262;28;20513;-50
2023/12/18 04:39:32;;;;;;;5.63;2.60;;;19.50;71.90;;;;;;2068529;28;20407;-49
2023/12/18 04:40:32;;;;;;;5.53;2.65;;;19.50;72.00;;;;;;2070554;28;20025;-50
2023/12/18 04:41:33;;;;;;;6.75;2.78;;;19.50;72.00;;;;;;2071319;28;20022;-50
2023/12/18 04:42:33;;;;;;;3.78;2.50;;;19.50;72.00;;;;;;2068291;28;20022;-50
2023/12/18 04:43:34;;;;;;;3.28;2.50;;;19.40;71.90;;;;;;2068067;28;21181;-50
2023/12/18 04:44:34;;;;;;;4.53;2.42;;;19.50;72.00;;;;;;2068965;28;20045;-51
2023/12/18 04:45:35;;;;;;;3.58;2.92;;;19.50;72.00;;;;;;2070738;28;20025;-50
2023/12/18 04:46:36;;;;;;;3.25;2.25;;;19.40;71.90;;;;;;2070852;28;20072;-50
2023/12/18 04:47:36;;;;;;;4.47;2.53;;;19.50;71.90;;;;;;2068608;28;20021;-50
2023/12/18 04:48:37;;;;;;;3.97;2.50;;;19.50;71.90;;;;;;2070879;28;20096;-50
2023/12/18 04:49:38;;;;;;;3.88;3.03;;;19.50;71.90;;;;;;2071876;28;20491;-50
2023/12/18 04:50:38;;;;;;;3.60;2.20;;;19.50;71.90;;;;;;2067828;28;20429;-50
2023/12/18 04:51:39;;;;;;;2.42;1.90;;;19.50;71.90;;;;;;2068612;28;20018;-50
2023/12/18 04:52:39;;;;;;;3.78;2.20;;;19.40;71.80;;;;;;2068298;28;20388;-51
2023/12/18 04:53:40;;;;;;;4.32;2.58;;;19.50;71.90;;;;;;2069525;28;20435;-50
2023/12/18 04:54:41;;;;;;;3.35;2.50;;;19.40;71.80;;;;;;2069066;28;20029;-50
2023/12/18 04:55:41;;;;;;;5.03;2.53;;;19.40;71.90;;;;;;2068963;28;20106;-49
2023/12/18 04:56:42;;;;;;;3.35;2.50;;;19.40;71.90;;;;;;2071308;28;20261;-53
2023/12/18 04:57:43;;;;;;;3.97;2.53;;;19.40;71.90;;;;;;2068866;28;20030;-49
2023/12/18 04:58:43;;;;;;;3.13;2.00;;;19.40;72.40;;;;;;2067990;28;20030;-50
2023/12/18 04:59:44;;;;;;;4.55;2.47;;;19.40;72.50;;;;;;2069617;28;20064;-50
2023/12/18 05:00:44;;;;;;;3.80;2.90;;;19.40;71.90;;;;;;2071307;28;20030;-50
2023/12/18 05:01:45;;;;;;;5.22;2.70;;;19.40;71.80;;;;;;2070386;28;20481;-50
2023/12/18 05:02:46;;;;;;;6.40;2.90;;;19.40;71.80;;;;;;2070605;28;20053;-50
2023/12/18 05:03:47;;;;;;;3.90;2.40;;;19.40;71.80;;;;;;2068747;28;20030;-50
2023/12/18 05:04:48;;;;;;;4.28;2.50;;;19.40;71.90;;;;;;2071104;28;20049;-51
2023/12/18 05:05:48;;;;;;;4.93;2.47;;;19.50;71.90;;;;;;2068348;28;20037;-51
2023/12/18 05:06:49;;;;;;;4.05;2.38;;;19.40;71.90;;;;;;2066304;28;20585;-50
2023/12/18 05:07:50;;;;;;;5.50;2.65;;;19.40;71.80;;;;;;2069022;28;20420;-50
2023/12/18 05:08:51;;;;;;;2.85;2.08;;;19.60;72.00;;;;;;2068794;28;20029;-49
2023/12/18 05:09:51;;;;;;;3.08;1.90;;;19.40;71.90;;;;;;2068520;28;20022;-51
2023/12/18 05:10:53;;;;;;;3.20;2.13;;;19.40;71.90;;;;;;2068829;28;20112;-49
2023/12/18 05:11:54;;;;;;;3.42;2.38;;;19.40;71.90;;;;;;2069470;28;20504;-51
2023/12/18 05:12:55;;;;;;;5.15;2.45;;;19.40;71.90;;;;;;2070691;28;20044;-51
2023/12/18 05:13:55;;;;;;;3.80;2.40;;;19.40;71.90;;;;;;2068763;28;20037;-50
2023/12/18 05:14:56;;;;;;;4.28;2.60;;;19.40;71.90;;;;;;2066191;28;20030;-49
2023/12/18 05:15:56;;;;;;;3.20;2.63;;;19.40;71.80;;;;;;2069379;28;20083;-50
2023/12/18 05:16:57;;;;;;;3.60;2.50;;;19.40;71.80;;;;;;2068538;28;20277;-51